< Typhoon 195813 1958 Season Typhoon 195815 >
Typhoon 195814 (NO-NAME)
General InformationTrack Information on Google Maps || Disaster Info.ResourceGoogle EarthGE AnimationAtom FeedGeoJSON
Detalied Best Track (Time Zone = UTC)
Year Month Day Hour Lat. Long. Pressure (hPa) Wind (kt) Class Image Chart
1958 7 19 06 18.5 112.5 1000 0 2 -- Chart
1958 7 19 12 19.4 113.8 1000 0 2 -- Chart
1958 7 19 18 20.7 113.0 998 0 2 -- Chart
1958 7 20 00 19.8 111.5 998 0 2 -- Chart
1958 7 20 06 19.7 112.4 998 0 2 -- Chart
1958 7 20 12 19.8 112.7 998 0 2 -- Chart
1958 7 20 18 20.0 113.0 998 0 2 -- Chart
1958 7 21 00 21.0 114.0 1000 0 2 -- Chart
1958 7 21 06 21.5 115.0 998 0 2 -- Chart
1958 7 21 12 22.0 116.0 992 0 2 -- Chart
1958 7 21 18 22.4 116.5 996 0 2 -- Chart
1958 7 22 00 23.0 117.0 994 0 2 -- Chart
1958 7 22 06 23.0 117.5 996 0 2 -- Chart
1958 7 22 12 23.2 117.7 998 0 2 -- Chart
1958 7 22 18 23.8 119.0 994 0 9 -- Chart
1958 7 23 00 24.0 119.0 994 0 9 -- Chart
1958 7 23 06 25.0 118.0 994 0 9 -- Chart
1958 7 23 12 24.8 119.0 993 0 9 -- Chart
1958 7 23 18 24.5 119.0 994 0 9 -- Chart
1958 7 24 00 24.0 117.8 996 0 9 -- Chart
1958 7 24 06 24.5 117.5 996 0 2 -- Chart
1958 7 24 12 24.8 117.5 998 0 2 -- Chart
1958 7 24 18 24.9 117.9 998 0 2 -- Chart
1958 7 25 00 25.0 118.0 1000 0 2 -- Chart
Japan Meteorological Agency Best Track Data | Correction Date : 1989-06-01
< Typhoon 195813 1958 Season Typhoon 195815 >

Help